Taxila Weather



Taxila's Current Weather

Temprature 16.16o few clouds

few clouds

Rain: 0 %

Min Temprature15o
Max Temprature17.22o
Humidity87
Wind Speed2.1 m/h
Sun Rise05:45:22
Sun Set18:34:47
Current Time: 09-Apr-2020 02:03:09
Lat/Lon: 33.75, 72.81




Taxila's Geo Location



Taxila's Weather Forecast

Time Overall Temp Min Temp Max Temp Humidity Wind Speed Rain
09-Apr-2020 (Thu)
05:00:00 few clouds 15.320 15.320 16.390 45 1.51 m/h 0 %
08:00:00 overcast clouds 19.580 19.580 20.380 40 0.91 m/h 0 %
11:00:00 overcast clouds 24.680 24.680 25.220 31 0.53 m/h 0 %
14:00:00 overcast clouds 27.440 27.440 27.710 25 2.59 m/h 0 %
17:00:00 overcast clouds 27.220 27.220 27.220 30 2.79 m/h 0 %
20:00:00 light rain 18.420 18.420 18.420 60 5.97 m/h 254 %
23:00:00 light rain 16.830 16.830 16.830 60 4.28 m/h 82 %
10-Apr-2020 (Fri)
02:00:00 light rain 15.570 15.570 15.570 64 3.01 m/h 45 %
05:00:00 broken clouds 15.200 15.200 15.200 62 2.87 m/h 0 %
08:00:00 few clouds 18.960 18.960 18.960 51 3.05 m/h 0 %
11:00:00 few clouds 24.750 24.750 24.750 38 3.89 m/h 0 %
14:00:00 scattered clouds 27.690 27.690 27.690 32 3.69 m/h 0 %
17:00:00 scattered clouds 26.590 26.590 26.590 37 3.68 m/h 0 %
20:00:00 clear sky 21.470 21.470 21.470 47 2.08 m/h 0 %
23:00:00 clear sky 20.400 20.400 20.400 43 2.46 m/h 0 %
11-Apr-2020 (Sat)
02:00:00 overcast clouds 19.310 19.310 19.310 44 2.14 m/h 0 %
05:00:00 overcast clouds 18.210 18.210 18.210 42 1.98 m/h 0 %
08:00:00 broken clouds 21.910 21.910 21.910 38 1.8 m/h 0 %
11:00:00 broken clouds 26.830 26.830 26.830 29 2.62 m/h 0 %
14:00:00 broken clouds 30.470 30.470 30.470 21 2.01 m/h 0 %
17:00:00 broken clouds 28.730 28.730 28.730 29 2.85 m/h 0 %
20:00:00 scattered clouds 23.130 23.130 23.130 37 1.68 m/h 0 %
23:00:00 broken clouds 21.500 21.500 21.500 40 1.42 m/h 0 %
12-Apr-2020 (Sun)
02:00:00 overcast clouds 20.670 20.670 20.670 41 1.68 m/h 0 %
05:00:00 broken clouds 19.290 19.290 19.290 41 1.84 m/h 0 %
08:00:00 few clouds 23.400 23.400 23.400 36 1.68 m/h 0 %
11:00:00 clear sky 28.680 28.680 28.680 25 2.87 m/h 0 %
14:00:00 few clouds 31.570 31.570 31.570 21 2.92 m/h 0 %
17:00:00 broken clouds 30.290 30.290 30.290 28 2.14 m/h 0 %
20:00:00 overcast clouds 24.190 24.190 24.190 34 1.05 m/h 0 %
23:00:00 overcast clouds 22.630 22.630 22.630 37 1.48 m/h 0 %
13-Apr-2020 (Mon)
02:00:00 overcast clouds 21.530 21.530 21.530 38 1.61 m/h 0 %
05:00:00 overcast clouds 20.700 20.700 20.700 40 1.66 m/h 0 %
08:00:00 overcast clouds 24.830 24.830 24.830 36 1.5 m/h 0 %
11:00:00 overcast clouds 30.300 30.300 30.300 26 1.88 m/h 0 %
14:00:00 few clouds 33.040 33.040 33.040 19 1.87 m/h 0 %
17:00:00 few clouds 32.600 32.600 32.600 23 1.1 m/h 0 %
20:00:00 scattered clouds 26.400 26.400 26.400 28 2.3 m/h 0 %
23:00:00 scattered clouds 24.740 24.740 24.740 31 2.89 m/h 0 %
14-Apr-2020 (Tue)
02:00:00 scattered clouds 23.060 23.060 23.060 35 2.36 m/h 0 %

Famous Cities (61)